Time;durP1;ratioP1;P1;durP2;ratioP2;P2;SDS_P1;SDS_P2;PMS_P1;PMS_P2;Temp;Humidity;BMP_temperature;BMP_pressure;BME280_temperature;BME280_humidity;BME280_pressure;Samples;Min_cycle;Max_cycle;Signal;HPM_P1;HPM_P2
2023/06/21 00:01:10;;;;;;;12.20;10.65;;;;;;;18.84;100.00;101097.09;5264117;28;20345;-68
2023/06/21 00:03:42;;;;;;;12.00;10.55;;;;;;;18.78;100.00;101101.28;5265549;28;20058;-68
2023/06/21 00:06:13;;;;;;;12.70;10.73;;;;;;;18.74;100.00;101104.50;5267564;28;20443;-68
2023/06/21 00:08:46;;;;;;;12.13;10.93;;;;;;;18.86;100.00;101100.50;5263458;28;20174;-68
2023/06/21 00:11:17;;;;;;;14.65;11.48;;;;;;;18.73;100.00;101108.19;5263442;28;20049;-68
2023/06/21 00:13:52;;;;;;;12.50;11.23;;;;;;;18.77;100.00;101121.25;5256737;28;20163;-68
2023/06/21 00:16:23;;;;;;;12.68;11.38;;;;;;;18.73;100.00;101127.13;5261628;28;20124;-68
2023/06/21 00:18:55;;;;;;;13.15;11.75;;;;;;;18.84;100.00;101121.44;5261233;28;20028;-68
2023/06/21 00:21:26;;;;;;;14.02;11.70;;;;;;;18.76;100.00;101129.50;5263432;28;20067;-68
2023/06/21 00:24:02;;;;;;;13.20;10.80;;;;;;;18.75;100.00;101134.03;5265125;28;20028;-68
2023/06/21 00:26:34;;;;;;;13.93;12.07;;;;;;;18.78;100.00;101125.63;5261494;28;20737;-68
2023/06/21 00:29:05;;;;;;;13.48;11.95;;;;;;;18.73;100.00;101124.41;5262016;28;20265;-68
2023/06/21 00:31:36;;;;;;;14.90;12.63;;;;;;;18.72;100.00;101112.75;5259423;28;20032;-68
2023/06/21 00:34:08;;;;;;;13.73;12.13;;;;;;;18.67;100.00;101114.25;5261335;28;20035;-68
2023/06/21 00:36:41;;;;;;;12.60;11.30;;;;;;;18.68;100.00;101121.34;5261232;28;20024;-68
2023/06/21 00:39:13;;;;;;;13.52;12.13;;;;;;;18.67;100.00;101119.66;5261097;28;20086;-68
2023/06/21 00:41:44;;;;;;;13.90;12.50;;;;;;;18.82;100.00;101128.03;5262312;28;20058;-68
2023/06/21 00:44:15;;;;;;;13.15;11.85;;;;;;;18.56;100.00;101124.38;5262266;28;20398;-68
2023/06/21 00:46:48;;;;;;;12.93;11.52;;;;;;;18.73;100.00;101121.72;5258842;28;20035;-68
2023/06/21 00:49:20;;;;;;;12.65;11.35;;;;;;;18.64;100.00;101128.97;5266949;28;20036;-68
2023/06/21 00:51:58;;;;;;;13.20;11.80;;;;;;;18.71;100.00;101129.13;5266687;28;20382;-68
2023/06/21 00:54:32;;;;;;;13.55;12.05;;;;;;;18.74;100.00;101123.41;5263396;28;20032;-68
2023/06/21 00:57:04;;;;;;;13.85;12.35;;;;;;;18.69;100.00;101131.16;5260063;28;20032;-68
2023/06/21 00:59:36;;;;;;;12.93;11.52;;;;;;;18.69;100.00;101140.09;5262266;28;20496;-68
2023/06/21 01:02:07;;;;;;;12.93;11.25;;;;;;;18.65;100.00;101127.09;5261938;28;20339;-68
2023/06/21 01:04:40;;;;;;;15.25;13.00;;;;;;;18.50;100.00;101134.97;5265425;28;20032;-68
2023/06/21 01:07:32;;;;;;;14.05;12.65;;;;;;;18.64;100.00;101137.06;5255735;28;20036;-68
2023/06/21 01:10:12;;;;;;;14.65;12.13;;;;;;;18.75;100.00;101138.59;5265226;28;20029;-69
2023/06/21 01:12:49;;;;;;;12.90;11.63;;;;;;;18.54;100.00;101147.13;5253402;28;20636;-68
2023/06/21 01:15:29;;;;;;;13.70;12.30;;;;;;;18.64;100.00;101130.78;5258010;28;20033;-68
2023/06/21 01:18:05;;;;;;;13.88;12.40;;;;;;;18.61;100.00;101138.22;5257741;28;20093;-68
2023/06/21 01:20:38;;;;;;;13.32;11.93;;;;;;;18.53;100.00;101135.50;5257788;28;20578;-68
2023/06/21 01:23:33;;;;;;;14.20;12.70;;;;;;;18.55;100.00;101138.03;5265110;28;20050;-68
2023/06/21 01:26:12;;;;;;;15.07;12.88;;;;;;;18.61;100.00;101154.44;5262618;28;20111;-68
2023/06/21 01:29:13;;;;;;;13.40;12.00;;;;;;;18.58;100.00;101148.50;5257168;28;20024;-68
2023/06/21 01:31:45;;;;;;;13.95;12.48;;;;;;;18.64;100.00;101149.72;5262452;28;20024;-67
2023/06/21 01:34:17;;;;;;;14.52;12.15;;;;;;;18.61;100.00;101146.31;5255237;28;20064;-68
2023/06/21 01:36:49;;;;;;;13.32;12.02;;;;;;;18.51;100.00;101152.88;5246081;28;20171;-68
2023/06/21 01:39:20;;;;;;;13.57;12.13;;;;;;;18.63;100.00;101161.56;5252866;28;20097;-68
2023/06/21 01:41:52;;;;;;;14.18;12.77;;;;;;;18.59;100.00;101167.25;5250754;28;20045;-68
2023/06/21 01:44:24;;;;;;;14.07;12.57;;;;;;;18.63;100.00;101164.25;5259991;28;20134;-68
2023/06/21 01:46:57;;;;;;;14.98;13.38;;;;;;;18.68;100.00;101159.19;5262955;28;20036;-68
2023/06/21 01:49:30;;;;;;;13.38;11.98;;;;;;;18.50;100.00;101152.03;5259110;28;20090;-68
2023/06/21 01:52:06;;;;;;;13.98;12.13;;;;;;;18.48;100.00;101155.91;5259331;28;20426;-68
2023/06/21 01:54:41;;;;;;;14.05;12.65;;;;;;;18.48;100.00;101155.91;5267139;28;20026;-68
2023/06/21 01:57:14;;;;;;;15.02;12.68;;;;;;;18.47;100.00;101160.47;5255010;28;20032;-68
2023/06/21 01:59:46;;;;;;;13.70;12.35;;;;;;;18.53;100.00;101167.09;5259785;28;20028;-67
2023/06/21 02:02:20;;;;;;;13.75;12.20;;;;;;;18.51;100.00;101169.94;5266185;28;20443;-68
2023/06/21 02:04:53;;;;;;;15.35;13.30;;;;;;;18.64;100.00;101161.41;5262799;28;20403;-68
2023/06/21 02:07:25;;;;;;;14.43;12.93;;;;;;;18.56;100.00;101181.13;5267509;28;20052;-68
2023/06/21 02:09:57;;;;;;;13.98;12.48;;;;;;;18.47;100.00;101173.13;5262349;28;21349;-68
2023/06/21 02:12:34;;;;;;;13.38;12.07;;;;;;;18.49;100.00;101173.81;5261948;28;20025;-67
2023/06/21 02:15:07;;;;;;;14.88;13.07;;;;;;;18.49;100.00;101171.13;5265460;28;20143;-68
2023/06/21 02:17:38;;;;;;;14.35;12.32;;;;;;;18.54;100.00;101177.72;5264826;28;20152;-68
2023/06/21 02:20:13;;;;;;;13.43;12.02;;;;;;;18.44;100.00;101179.69;5268172;28;20032;-68
2023/06/21 02:22:45;;;;;;;15.52;13.35;;;;;;;18.46;100.00;101183.06;5266249;28;20097;-68
2023/06/21 02:25:17;;;;;;;14.35;12.85;;;;;;;18.34;100.00;101189.78;5265651;28;20043;-68
2023/06/21 02:27:48;;;;;;;14.85;13.38;;;;;;;18.37;100.00;101194.84;5266778;28;20032;-67
2023/06/21 02:30:20;;;;;;;16.25;13.50;;;;;;;18.39;100.00;101190.16;5269131;28;20032;-68
2023/06/21 02:32:51;;;;;;;14.98;13.48;;;;;;;18.37;100.00;101189.44;5265370;28;20112;-68
2023/06/21 02:35:23;;;;;;;16.25;13.63;;;;;;;18.39;100.00;101195.56;5258861;28;20393;-68
2023/06/21 02:37:55;;;;;;;16.45;14.75;;;;;;;18.37;100.00;101205.66;5270408;28;20036;-67
2023/06/21 02:40:26;;;;;;;16.25;14.55;;;;;;;18.43;100.00;101210.44;5267880;28;20040;-68
2023/06/21 02:42:58;;;;;;;16.55;14.85;;;;;;;18.31;100.00;101206.28;5266866;28;20029;-67
2023/06/21 02:45:29;;;;;;;16.20;14.40;;;;;;;18.39;100.00;101211.78;5265552;28;20047;-68
2023/06/21 02:48:01;;;;;;;17.40;14.30;;;;;;;18.33;100.00;101220.47;5259510;28;20031;-68
2023/06/21 02:50:32;;;;;;;16.27;14.55;;;;;;;18.33;100.00;101207.84;5260536;28;20036;-68
2023/06/21 02:53:03;;;;;;;16.90;15.10;;;;;;;18.28;100.00;101217.44;5267709;28;20111;-68
2023/06/21 02:55:35;;;;;;;15.48;13.82;;;;;;;18.39;100.00;101219.88;5265629;28;20068;-68
2023/06/21 02:58:06;;;;;;;16.63;14.93;;;;;;;18.39;100.00;101227.97;5264830;28;20429;-69
2023/06/21 03:00:40;;;;;;;16.17;14.52;;;;;;;18.36;100.00;101225.59;5265255;28;20020;-68
2023/06/21 03:03:11;;;;;;;;;;;;;;;18.54;100.00;101223.69;5267320;28;20071;-68
2023/06/21 03:05:43;;;;;;;19.80;15.95;;;;;;;18.33;100.00;101242.09;5265778;28;20031;-68
2023/06/21 03:08:14;;;;;;;17.90;15.48;;;;;;;18.22;100.00;101244.06;5258866;28;20632;-68
2023/06/21 03:10:46;;;;;;;17.05;15.25;;;;;;;18.29;100.00;101246.97;5257326;28;20036;-68
2023/06/21 03:13:17;;;;;;;15.98;14.10;;;;;;;18.21;100.00;101249.63;5265562;28;20036;-68
2023/06/21 03:15:49;;;;;;;15.85;14.25;;;;;;;18.20;100.00;101253.34;5260870;28;20055;-68
2023/06/21 03:18:20;;;;;;;15.88;14.15;;;;;;;18.31;100.00;101263.03;5252220;28;20077;-68
2023/06/21 03:20:51;;;;;;;15.65;13.95;;;;;;;18.18;100.00;101261.59;5249953;28;20435;-67
2023/06/21 03:23:23;;;;;;;17.35;15.02;;;;;;;18.25;100.00;101261.78;5252123;28;20040;-68
2023/06/21 03:25:54;;;;;;;16.23;14.52;;;;;;;18.28;100.00;101269.59;5263351;28;20041;-68
2023/06/21 03:28:26;;;;;;;15.90;14.25;;;;;;;18.29;100.00;101267.72;5263175;28;20052;-68
2023/06/21 03:30:57;;;;;;;17.30;14.25;;;;;;;18.19;100.00;101267.84;5266767;28;20032;-68
2023/06/21 03:33:29;;;;;;;15.75;14.15;;;;;;;18.18;100.00;101260.75;5263361;28;20591;-68
2023/06/21 03:36:00;;;;;;;18.30;16.02;;;;;;;18.34;100.00;101263.56;5257632;28;21427;-68
2023/06/21 03:38:31;;;;;;;17.85;15.02;;;;;;;18.16;100.00;101268.13;5261215;28;20726;-68
2023/06/21 03:41:03;;;;;;;17.27;15.48;;;;;;;18.28;100.00;101266.91;5263180;28;20025;-68
2023/06/21 03:43:34;;;;;;;17.70;15.27;;;;;;;18.25;100.00;101264.50;5267183;28;20556;-68
2023/06/21 03:46:06;;;;;;;16.85;15.05;;;;;;;18.25;100.00;101260.94;5265098;28;20031;-68
2023/06/21 03:48:37;;;;;;;18.95;15.63;;;;;;;18.29;100.00;101256.94;5264656;28;20028;-68
2023/06/21 03:51:08;;;;;;;18.45;16.23;;;;;;;18.32;100.00;101262.03;5264802;28;20025;-68
2023/06/21 03:53:40;;;;;;;18.95;16.20;;;;;;;18.26;100.00;101258.09;5261502;28;20036;-68
2023/06/21 03:56:11;;;;;;;17.85;15.93;;;;;;;18.31;100.00;101265.72;5252579;28;20029;-68
2023/06/21 03:58:42;;;;;;;18.10;16.20;;;;;;;18.40;100.00;101270.19;5259482;28;20036;-68
2023/06/21 04:01:16;;;;;;;19.33;16.50;;;;;;;18.49;100.00;101269.25;5255018;28;20511;-67
2023/06/21 04:03:47;;;;;;;23.30;17.40;;;;;;;18.47;100.00;101276.66;5265372;28;20025;-68
2023/06/21 04:06:19;;;;;;;19.10;16.27;;;;;;;18.53;100.00;101283.28;5251054;28;20138;-68
2023/06/21 04:08:50;;;;;;;18.50;16.58;;;;;;;18.53;100.00;101285.97;5260743;28;20087;-68
2023/06/21 04:11:22;;;;;;;18.80;16.80;;;;;;;18.52;100.00;101290.50;5256418;28;20035;-68
2023/06/21 04:13:54;;;;;;;18.40;16.50;;;;;;;18.50;100.00;101292.53;5265385;28;20139;-68
2023/06/21 04:16:26;;;;;;;18.40;16.52;;;;;;;18.47;100.00;101294.72;5257268;28;20036;-68
2023/06/21 04:18:58;;;;;;;18.37;16.47;;;;;;;18.50;100.00;101303.34;5255463;28;20427;-68
2023/06/21 04:21:30;;;;;;;19.15;17.08;;;;;;;18.52;100.00;101306.72;5263464;28;20290;-67
2023/06/21 04:24:01;;;;;;;18.55;16.65;;;;;;;18.44;100.00;101317.50;5264661;28;20496;-68
2023/06/21 04:26:33;;;;;;;18.45;16.42;;;;;;;18.47;100.00;101313.66;5259343;28;20020;-68
2023/06/21 04:29:04;;;;;;;19.35;17.35;;;;;;;18.54;100.00;101314.69;5264644;28;20028;-69
2023/06/21 04:31:37;;;;;;;18.50;16.33;;;;;;;18.55;100.00;101317.25;5262397;28;20112;-68
2023/06/21 04:34:09;;;;;;;19.65;17.65;;;;;;;18.68;100.00;101322.22;5256531;28;20056;-68
2023/06/21 04:36:40;;;;;;;21.60;17.70;;;;;;;18.72;100.00;101326.31;5262569;28;20253;-68
2023/06/21 04:39:11;;;;;;;19.88;17.25;;;;;;;18.67;100.00;101327.78;5255053;28;20490;-67
2023/06/21 04:41:47;;;;;;;20.17;18.08;;;;;;;18.59;100.00;101328.59;5262592;28;20032;-68
2023/06/21 04:44:20;;;;;;;20.73;18.55;;;;;;;18.74;100.00;101334.25;5264050;28;20048;-68
2023/06/21 04:46:52;;;;;;;21.98;19.67;;;;;;;18.76;100.00;101329.53;5264650;28;20040;-68
2023/06/21 04:49:26;;;;;;;20.25;18.05;;;;;;;18.72;100.00;101328.19;5263550;28;20024;-68
2023/06/21 04:52:00;;;;;;;20.67;18.52;;;;;;;18.77;100.00;101320.41;5262797;28;20025;-68
2023/06/21 04:54:32;;;;;;;20.42;18.30;;;;;;;18.80;100.00;101322.84;5267691;28;20024;-68
2023/06/21 04:57:04;;;;;;;23.08;20.17;;;;;;;18.85;100.00;101317.81;5271640;28;20070;-68
2023/06/21 04:59:36;;;;;;;22.23;19.92;;;;;;;18.87;100.00;101321.19;5268777;28;20024;-68
2023/06/21 05:02:07;;;;;;;23.02;20.15;;;;;;;18.88;100.00;101331.00;5266129;28;20043;-68
2023/06/21 05:04:39;;;;;;;25.10;21.02;;;;;;;18.97;100.00;101331.91;5271295;28;20036;-68
2023/06/21 05:07:10;;;;;;;22.05;19.75;;;;;;;18.95;100.00;101340.16;5267048;28;20455;-68
2023/06/21 05:09:42;;;;;;;23.00;20.55;;;;;;;18.91;100.00;101337.97;5267864;28;20036;-68
2023/06/21 05:12:13;;;;;;;22.65;20.35;;;;;;;18.95;100.00;101337.47;5265038;28;20041;-68
2023/06/21 05:14:44;;;;;;;24.35;21.75;;;;;;;19.01;100.00;101352.19;5257541;28;20046;-68
2023/06/21 05:17:16;;;;;;;23.73;21.23;;;;;;;19.03;100.00;101349.34;5267320;28;20036;-68
2023/06/21 05:19:48;;;;;;;25.20;22.65;;;;;;;19.15;100.00;101343.47;5263642;28;20427;-68
2023/06/21 05:22:19;;;;;;;25.50;22.73;;;;;;;19.35;100.00;101357.63;5264598;28;20063;-68
2023/06/21 05:24:51;;;;;;;26.42;23.13;;;;;;;19.38;100.00;101364.56;5265423;28;20032;-68
2023/06/21 05:27:22;;;;;;;24.63;21.95;;;;;;;19.40;100.00;101368.78;5262494;28;20209;-68
2023/06/21 05:29:53;;;;;;;25.83;22.30;;;;;;;19.41;100.00;101369.66;5267342;28;20036;-68
2023/06/21 05:32:25;;;;;;;24.33;21.73;;;;;;;19.48;100.00;101364.41;5262056;28;20028;-68
2023/06/21 05:34:57;;;;;;;23.05;20.65;;;;;;;19.48;100.00;101367.13;5269504;28;20194;-68
2023/06/21 05:37:28;;;;;;;24.67;21.05;;;;;;;19.61;100.00;101367.53;5269097;28;20154;-68
2023/06/21 05:40:02;;;;;;;23.75;21.25;;;;;;;19.54;100.00;101370.03;5270876;28;20036;-68
2023/06/21 05:42:33;;;;;;;;;;;;;;;19.80;100.00;101361.00;5267416;28;20103;-68
2023/06/21 05:45:08;;;;;;;25.38;22.55;;;;;;;19.45;100.00;101362.91;5273623;28;19916;-68
2023/06/21 05:47:39;;;;;;;;;;;;;;;19.71;100.00;101379.06;5268110;28;20031;-68
2023/06/21 05:50:10;;;;;;;25.35;22.65;;;;;;;19.49;100.00;101380.50;5271063;28;19920;-68
2023/06/21 05:52:42;;;;;;;24.85;22.25;;;;;;;19.40;100.00;101385.03;5271470;28;20086;-68
2023/06/21 05:55:13;;;;;;;24.77;22.23;;;;;;;19.43;100.00;101386.56;5270775;28;20406;-67
2023/06/21 05:57:45;;;;;;;24.25;21.73;;;;;;;19.43;100.00;101391.97;5262126;28;20056;-68
2023/06/21 06:00:17;;;;;;;26.35;21.65;;;;;;;19.50;100.00;101397.59;5268972;28;20395;-68
2023/06/21 06:02:48;;;;;;;24.48;21.98;;;;;;;19.41;100.00;101399.41;5267484;28;20486;-68
2023/06/21 06:05:20;;;;;;;24.95;22.20;;;;;;;19.48;100.00;101402.31;5261975;28;20055;-68
2023/06/21 06:07:51;;;;;;;24.95;22.38;;;;;;;19.54;100.00;101407.06;5265296;28;20052;-68
2023/06/21 06:10:23;;;;;;;24.75;22.15;;;;;;;19.53;100.00;101408.09;5271188;28;20081;-69
2023/06/21 06:12:54;;;;;;;25.00;22.40;;;;;;;19.62;100.00;101412.53;5272331;28;20052;-68
2023/06/21 06:15:25;;;;;;;27.73;23.50;;;;;;;19.67;100.00;101412.88;5271347;28;20032;-68
2023/06/21 06:17:57;;;;;;;26.45;23.65;;;;;;;19.75;100.00;101399.44;5253892;28;20020;-68
2023/06/21 06:20:28;;;;;;;25.27;22.30;;;;;;;19.73;100.00;101409.56;5271772;28;20104;-68
2023/06/21 06:23:01;;;;;;;24.83;22.15;;;;;;;19.85;100.00;101411.94;5274611;28;20052;-68
2023/06/21 06:25:32;;;;;;;23.17;20.83;;;;;;;19.87;100.00;101408.09;5270923;28;20102;-68
2023/06/21 06:28:04;;;;;;;24.88;20.55;;;;;;;19.88;100.00;101411.63;5269384;28;20020;-68
2023/06/21 06:30:36;;;;;;;20.35;18.05;;;;;;;19.89;100.00;101421.47;5275257;28;20029;-68
2023/06/21 06:33:07;;;;;;;20.00;17.90;;;;;;;19.87;100.00;101421.63;5264158;28;20039;-68
2023/06/21 06:35:38;;;;;;;18.73;16.45;;;;;;;19.95;100.00;101432.47;5273054;28;20426;-68
2023/06/21 06:38:10;;;;;;;17.05;15.27;;;;;;;20.11;100.00;101430.81;5271642;28;20056;-68
2023/06/21 06:40:41;;;;;;;18.13;14.30;;;;;;;20.00;100.00;101437.41;5266645;28;20033;-68
2023/06/21 06:43:12;;;;;;;15.07;13.43;;;;;;;20.04;100.00;101432.50;5264294;28;20135;-68
2023/06/21 06:45:44;;;;;;;15.75;13.05;;;;;;;20.04;100.00;101433.38;5256649;28;20086;-68
2023/06/21 06:48:15;;;;;;;16.17;13.50;;;;;;;20.17;100.00;101436.44;5273537;28;20032;-68
2023/06/21 06:50:47;;;;;;;15.45;13.23;;;;;;;20.18;100.00;101443.53;5260300;28;20388;-68
2023/06/21 06:53:18;;;;;;;15.95;12.13;;;;;;;20.33;100.00;101456.47;5266081;28;20107;-68
2023/06/21 06:55:51;;;;;;;13.73;10.45;;;;;;;20.22;100.00;101457.63;5266770;28;20036;-68
2023/06/21 06:58:22;;;;;;;12.65;10.40;;;;;;;20.30;100.00;101459.50;5268760;28;20060;-68
2023/06/21 07:00:54;;;;;;;12.52;11.23;;;;;;;20.22;100.00;101467.63;5267583;28;20842;-68
2023/06/21 07:03:26;;;;;;;13.35;10.52;;;;;;;20.27;100.00;101467.94;5265333;28;20031;-68
2023/06/21 07:05:57;;;;;;;11.88;10.43;;;;;;;20.05;100.00;101459.44;5265091;28;20091;-68
2023/06/21 07:08:28;;;;;;;13.18;10.90;;;;;;;20.03;100.00;101464.16;5265144;28;20528;-67
2023/06/21 07:11:00;;;;;;;14.60;10.90;;;;;;;20.17;100.00;101457.25;5271296;28;20382;-67
2023/06/21 07:13:31;;;;;;;12.95;11.05;;;;;;;20.23;100.00;101466.59;5265364;28;20024;-67
2023/06/21 07:16:03;;;;;;;12.98;11.60;;;;;;;20.39;100.00;101458.50;5270386;28;20127;-67
2023/06/21 07:18:34;;;;;;;14.65;12.35;;;;;;;20.26;100.00;101460.84;5270084;28;20504;-67
2023/06/21 07:21:06;;;;;;;14.57;12.00;;;;;;;20.37;100.00;101463.25;5265533;28;20024;-67
2023/06/21 07:23:37;;;;;;;15.48;13.88;;;;;;;20.42;100.00;101465.44;5261380;28;20028;-67
2023/06/21 07:26:09;;;;;;;15.60;13.60;;;;;;;20.43;100.00;101459.84;5268061;28;20040;-67
2023/06/21 07:28:41;;;;;;;17.42;14.60;;;;;;;20.59;100.00;101456.31;5266423;28;20062;-67
2023/06/21 07:31:13;;;;;;;19.40;15.88;;;;;;;20.62;100.00;101464.16;5268387;28;20078;-67
2023/06/21 07:33:47;;;;;;;17.60;15.80;;;;;;;20.79;100.00;101461.44;5263695;28;20174;-67
2023/06/21 07:36:19;;;;;;;16.80;14.80;;;;;;;20.78;100.00;101466.00;5268965;28;20075;-67
2023/06/21 07:38:50;;;;;;;16.67;14.90;;;;;;;21.12;100.00;101454.13;5262703;28;21610;-67
2023/06/21 07:41:22;;;;;;;15.93;14.20;;;;;;;20.81;100.00;101459.41;5265268;28;20055;-67
2023/06/21 07:43:53;;;;;;;15.07;13.23;;;;;;;20.88;100.00;101457.69;5267162;28;20089;-67
2023/06/21 07:46:24;;;;;;;14.82;12.95;;;;;;;20.92;100.00;101473.47;5265181;28;20030;-66
2023/06/21 07:48:56;;;;;;;13.30;11.80;;;;;;;20.92;100.00;101473.47;5264160;28;20134;-67
2023/06/21 07:51:27;;;;;;;14.68;12.60;;;;;;;20.98;100.00;101473.81;5267437;28;20036;-67
2023/06/21 07:53:59;;;;;;;15.23;12.80;;;;;;;21.03;100.00;101477.69;5268799;28;20359;-66
2023/06/21 07:56:30;;;;;;;14.00;12.25;;;;;;;21.10;100.00;101469.75;5266648;28;20034;-67
2023/06/21 07:59:02;;;;;;;13.98;12.20;;;;;;;21.24;100.00;101481.75;5270498;28;20546;-67
2023/06/21 08:01:34;;;;;;;14.48;12.98;;;;;;;21.28;100.00;101472.25;5269335;28;20040;-67
2023/06/21 08:04:06;;;;;;;14.80;13.30;;;;;;;21.34;100.00;101467.00;5261948;28;20044;-66
2023/06/21 08:06:37;;;;;;;13.45;12.15;;;;;;;21.48;100.00;101473.59;5267605;28;20040;-66
2023/06/21 08:09:08;;;;;;;14.55;13.15;;;;;;;21.53;100.00;101484.78;5263862;28;20043;-66
2023/06/21 08:11:40;;;;;;;12.88;11.57;;;;;;;21.53;100.00;101478.50;5261900;28;20028;-66
2023/06/21 08:14:11;;;;;;;12.95;11.52;;;;;;;21.54;100.00;101491.91;5265398;28;20052;-66
2023/06/21 08:16:42;;;;;;;10.30;9.23;;;;;;;21.64;100.00;101480.84;5269290;28;20195;-66
2023/06/21 08:19:14;;;;;;;11.48;8.95;;;;;;;21.85;100.00;101482.97;5263660;28;20033;-66
2023/06/21 08:21:45;;;;;;;10.90;9.45;;;;;;;21.75;100.00;101485.06;5261361;28;20475;-66
2023/06/21 08:24:17;;;;;;;12.90;10.48;;;;;;;21.70;100.00;101487.44;5262692;28;20456;-65
2023/06/21 08:26:48;;;;;;;9.82;8.80;;;;;;;21.64;100.00;101482.72;5261985;28;20343;-65
2023/06/21 08:29:19;;;;;;;10.07;8.70;;;;;;;21.73;100.00;101477.06;5267327;28;20046;-65
2023/06/21 08:31:51;;;;;;;11.88;7.90;;;;;;;21.72;100.00;101480.81;5268059;28;20600;-65
2023/06/21 08:34:22;;;;;;;9.45;8.05;;;;;;;21.74;100.00;101480.63;5267811;28;20032;-66
2023/06/21 08:36:54;;;;;;;10.68;9.18;;;;;;;21.82;100.00;101479.75;5264192;28;20028;-65
2023/06/21 08:39:25;;;;;;;10.68;8.48;;;;;;;22.00;100.00;101479.53;5263891;28;20037;-66
2023/06/21 08:41:57;;;;;;;9.82;8.82;;;;;;;21.96;100.00;101472.72;5266730;28;20028;-65
2023/06/21 08:44:28;;;;;;;10.70;8.68;;;;;;;22.05;100.00;101471.66;5269488;28;20028;-65
2023/06/21 08:47:01;;;;;;;12.35;9.68;;;;;;;22.03;100.00;101481.88;5261766;28;20610;-65
2023/06/21 08:49:40;;;;;;;9.15;7.50;;;;;;;22.10;100.00;101480.13;5271424;28;20031;-65
2023/06/21 08:52:18;;;;;;;9.85;7.30;;;;;;;22.16;100.00;101484.84;5266290;28;20088;-65
2023/06/21 08:54:59;;;;;;;9.52;7.75;;;;;;;22.12;100.00;101476.22;5266515;28;20505;-65
2023/06/21 08:57:55;;;;;;;8.45;7.28;;;;;;;22.20;100.00;101483.47;5268056;28;20111;-65
2023/06/21 09:00:36;;;;;;;8.65;7.75;;;;;;;22.28;100.00;101480.75;5270060;28;20040;-65
2023/06/21 09:03:19;;;;;;;8.60;5.97;;;;;;;22.32;100.00;101481.22;5257492;28;20391;-65
2023/06/21 09:06:05;;;;;;;8.07;5.70;;;;;;;22.47;100.00;101478.59;5267903;28;20474;-65
2023/06/21 09:08:39;;;;;;;5.82;4.43;;;;;;;22.42;100.00;101484.56;5269023;28;20375;-66
2023/06/21 09:11:13;;;;;;;8.93;5.22;;;;;;;22.55;100.00;101483.13;5265950;28;20687;-65
2023/06/21 09:13:45;;;;;;;5.93;3.97;;;;;;;22.58;100.00;101478.16;5266703;28;20029;-65
2023/06/21 09:16:18;;;;;;;6.47;5.20;;;;;;;22.66;100.00;101477.25;5264530;28;20495;-65
2023/06/21 09:18:50;;;;;;;5.35;3.47;;;;;;;22.71;100.00;101488.44;5262793;28;20491;-65
2023/06/21 09:21:22;;;;;;;5.38;3.42;;;;;;;22.70;100.00;101500.34;5266243;28;20150;-65
2023/06/21 09:23:53;;;;;;;5.40;3.78;;;;;;;22.73;100.00;101480.13;5259219;28;20032;-66
2023/06/21 09:26:24;;;;;;;3.50;2.60;;;;;;;22.81;100.00;101486.31;5260605;28;20327;-66
2023/06/21 09:28:56;;;;;;;4.78;3.63;;;;;;;22.89;100.00;101486.25;5259325;28;20388;-67
2023/06/21 09:31:27;;;;;;;6.40;4.38;;;;;;;22.92;100.00;101484.22;5261493;28;20040;-65
2023/06/21 09:33:59;;;;;;;6.18;3.90;;;;;;;23.18;100.00;101489.25;5262262;28;20063;-66
2023/06/21 09:36:31;;;;;;;6.28;4.75;;;;;;;23.19;100.00;101491.81;5263965;28;20051;-66
2023/06/21 09:39:07;;;;;;;6.25;4.53;;;;;;;23.18;100.00;101492.81;5279751;28;20027;-66
2023/06/21 09:41:41;;;;;;;4.97;4.10;;;;;;;23.31;100.00;101499.53;5270289;28;20054;-66
2023/06/21 09:44:12;;;;;;;5.80;4.07;;;;;;;23.34;100.00;101508.19;5271702;28;20025;-65
2023/06/21 09:46:47;;;;;;;5.05;3.65;;;;;;;23.37;100.00;101501.50;5270897;28;20029;-65
2023/06/21 09:49:18;;;;;;;5.68;3.72;;;;;;;23.33;100.00;101506.47;5274597;28;20047;-65
2023/06/21 09:51:50;;;;;;;6.28;5.07;;;;;;;23.32;100.00;101498.47;5270704;28;20446;-65
2023/06/21 09:54:21;;;;;;;13.32;6.05;;;;;;;23.35;100.00;101498.13;5275879;28;20434;-64
2023/06/21 09:56:53;;;;;;;7.50;4.30;;;;;;;23.33;100.00;101492.84;5268461;28;20113;-66
2023/06/21 09:59:24;;;;;;;6.43;4.03;;;;;;;23.53;100.00;101498.63;5271328;28;20032;-66
2023/06/21 10:01:55;;;;;;;6.20;4.18;;;;;;;23.53;100.00;101498.63;5270315;28;20024;-65
2023/06/21 10:04:27;;;;;;;5.07;2.78;;;;;;;23.53;100.00;101493.16;5276122;28;20584;-66
2023/06/21 10:07:02;;;;;;;5.63;2.40;;;;;;;23.62;100.00;101505.63;5280234;28;20032;-66
2023/06/21 10:09:37;;;;;;;4.40;2.92;;;;;;;23.61;100.00;101503.97;5273456;28;20093;-66
2023/06/21 10:12:10;;;;;;;4.38;3.47;;;;;;;23.63;100.00;101501.91;5263494;28;20032;-66
2023/06/21 10:14:42;;;;;;;6.80;4.25;;;;;;;23.55;100.00;101517.47;5277430;28;20048;-66
2023/06/21 10:17:15;;;;;;;6.65;4.35;;;;;;;23.56;100.00;101519.19;5272475;28;20522;-66
2023/06/21 10:19:47;;;;;;;6.57;4.45;;;;;;;23.61;100.00;101520.31;5273253;28;20052;-66
2023/06/21 10:22:20;;;;;;;7.43;4.50;;;;;;;23.65;100.00;101532.53;5276264;28;20147;-66
2023/06/21 10:24:52;;;;;;;8.00;5.93;;;;;;;23.60;100.00;101534.97;5279427;28;20021;-66
2023/06/21 10:27:24;;;;;;;6.72;4.90;;;;;;;23.64;100.00;101535.44;5271309;28;20369;-66
2023/06/21 10:29:57;;;;;;;7.40;4.90;;;;;;;23.72;100.00;101524.47;5263763;28;20031;-66
2023/06/21 10:32:33;;;;;;;4.93;4.07;;;;;;;23.86;100.00;101536.41;5279030;28;20028;-66
2023/06/21 10:35:05;;;;;;;5.07;2.88;;;;;;;23.98;100.00;101534.91;5272872;28;20413;-66
2023/06/21 10:37:48;;;;;;;5.15;2.67;;;;;;;24.04;100.00;101539.59;5273932;28;20036;-66
2023/06/21 10:40:19;;;;;;;5.00;3.72;;;;;;;24.11;100.00;101538.84;5275057;28;20111;-66
2023/06/21 10:42:51;;;;;;;7.85;4.68;;;;;;;24.00;100.00;101543.72;5275867;28;20046;-66
2023/06/21 10:45:23;;;;;;;5.55;4.20;;;;;;;23.99;100.00;101544.78;5278031;28;20127;-67
2023/06/21 10:47:55;;;;;;;6.68;4.20;;;;;;;23.88;100.00;101550.72;5267900;28;20055;-67
2023/06/21 10:50:27;;;;;;;6.43;4.70;;;;;;;23.75;100.00;101542.31;5268317;28;20024;-67
2023/06/21 10:53:01;;;;;;;5.55;4.85;;;;;;;23.78;100.00;101548.25;5270104;28;20036;-66
2023/06/21 10:55:33;;;;;;;8.10;5.18;;;;;;;23.97;100.00;101537.81;5274925;28;20024;-67
2023/06/21 10:58:05;;;;;;;7.05;5.45;;;;;;;24.05;100.00;101546.75;5281278;28;20051;-67
2023/06/21 11:00:36;;;;;;;6.70;5.22;;;;;;;24.13;100.00;101539.50;5275762;28;20025;-67
2023/06/21 11:03:12;;;;;;;6.25;5.60;;;;;;;24.06;100.00;101542.97;5260744;28;20091;-66
2023/06/21 11:05:44;;;;;;;7.50;5.13;;;;;;;24.17;100.00;101551.72;5269773;28;20031;-67
2023/06/21 11:08:16;;;;;;;9.13;4.88;;;;;;;24.17;100.00;101547.09;5276040;28;20506;-67
2023/06/21 11:10:50;;;;;;;6.50;3.47;;;;;;;24.22;100.00;101560.16;5266133;28;20571;-67
2023/06/21 11:13:37;;;;;;;;;;;;;;;24.39;100.00;101552.59;5273897;28;20163;-67
2023/06/21 11:16:11;;;;;;;6.55;4.05;;;;;;;24.39;100.00;101564.38;5268104;28;19916;-67
2023/06/21 11:18:43;;;;;;;;;;;;;;;24.55;100.00;101563.34;5272109;28;20032;-67
2023/06/21 11:21:34;;;;;;;5.13;3.72;;;;;;;24.42;100.00;101553.06;5272296;28;20404;-67
2023/06/21 11:24:08;;;;;;;6.00;3.50;;;;;;;24.50;100.00;101554.00;5272019;28;20504;-66
2023/06/21 11:26:56;;;;;;;5.88;3.60;;;;;;;24.60;100.00;101570.94;5270795;28;20108;-67
2023/06/21 11:29:36;;;;;;;5.15;3.60;;;;;;;24.59;100.00;101561.06;5272995;28;20047;-67
2023/06/21 11:32:11;;;;;;;6.20;4.60;;;;;;;24.55;100.00;101560.59;5267806;28;20141;-67